sensor_id;sensor_type;location;lat;lon;timestamp;pressure;altitude;pressure_sealevel;temperature;humidity
56944;BME280;42848;42.524;12.052;2024-03-08T00:02:16;96652.75;;;7.49;100.00
56944;BME280;42848;42.524;12.052;2024-03-08T00:04:42;96649.88;;;7.32;100.00
56944;BME280;42848;42.524;12.052;2024-03-08T00:07:08;96661.03;;;7.39;100.00
56944;BME280;42848;42.524;12.052;2024-03-08T00:09:33;96653.28;;;7.24;100.00
56944;BME280;42848;42.524;12.052;2024-03-08T00:11:59;96653.56;;;7.08;100.00
56944;BME280;42848;42.524;12.052;2024-03-08T00:14:25;96653.47;;;7.13;100.00
56944;BME280;42848;42.524;12.052;2024-03-08T00:16:51;96653.94;;;7.02;100.00
56944;BME280;42848;42.524;12.052;2024-03-08T00:19:19;96653.06;;;7.06;100.00
56944;BME280;42848;42.524;12.052;2024-03-08T00:21:45;96652.63;;;7.13;100.00
56944;BME280;42848;42.524;12.052;2024-03-08T00:24:11;96653.56;;;6.62;100.00
56944;BME280;42848;42.524;12.052;2024-03-08T00:26:37;96651.47;;;7.05;100.00
56944;BME280;42848;42.524;12.052;2024-03-08T00:29:03;96649.13;;;7.12;100.00
56944;BME280;42848;42.524;12.052;2024-03-08T00:31:29;96652.03;;;7.02;100.00
56944;BME280;42848;42.524;12.052;2024-03-08T00:33:56;96660.25;;;6.97;100.00
56944;BME280;42848;42.524;12.052;2024-03-08T00:36:22;96654.66;;;7.07;100.00
56944;BME280;42848;42.524;12.052;2024-03-08T00:38:48;96649.25;;;7.21;100.00
56944;BME280;42848;42.524;12.052;2024-03-08T00:41:14;96650.25;;;7.11;100.00
56944;BME280;42848;42.524;12.052;2024-03-08T00:43:39;96651.47;;;7.33;100.00
56944;BME280;42848;42.524;12.052;2024-03-08T00:46:05;96644.88;;;7.25;100.00
56944;BME280;42848;42.524;12.052;2024-03-08T00:48:30;96639.78;;;7.24;100.00
56944;BME280;42848;42.524;12.052;2024-03-08T00:50:56;96646.47;;;7.26;100.00
56944;BME280;42848;42.524;12.052;2024-03-08T00:53:22;96640.66;;;7.19;100.00
56944;BME280;42848;42.524;12.052;2024-03-08T00:55:48;96640.25;;;7.26;100.00
56944;BME280;42848;42.524;12.052;2024-03-08T00:58:14;96641.84;;;6.99;100.00
56944;BME280;42848;42.524;12.052;2024-03-08T01:00:39;96637.28;;;7.13;100.00
56944;BME280;42848;42.524;12.052;2024-03-08T01:03:05;96631.53;;;6.88;100.00
56944;BME280;42848;42.524;12.052;2024-03-08T01:05:32;96632.78;;;7.23;100.00
56944;BME280;42848;42.524;12.052;2024-03-08T01:07:59;96624.25;;;7.16;100.00
56944;BME280;42848;42.524;12.052;2024-03-08T01:10:24;96618.44;;;6.95;100.00
56944;BME280;42848;42.524;12.052;2024-03-08T01:12:50;96619.25;;;6.95;100.00
56944;BME280;42848;42.524;12.052;2024-03-08T01:15:16;96605.94;;;7.12;100.00
56944;BME280;42848;42.524;12.052;2024-03-08T01:17:42;96612.34;;;6.89;100.00
56944;BME280;42848;42.524;12.052;2024-03-08T01:20:09;96611.84;;;6.87;100.00
56944;BME280;42848;42.524;12.052;2024-03-08T01:22:38;96613.53;;;6.83;100.00
56944;BME280;42848;42.524;12.052;2024-03-08T01:25:04;96615.06;;;6.89;100.00
56944;BME280;42848;42.524;12.052;2024-03-08T01:27:30;96613.22;;;6.71;100.00
56944;BME280;42848;42.524;12.052;2024-03-08T01:29:56;96607.84;;;6.71;100.00
56944;BME280;42848;42.524;12.052;2024-03-08T01:32:24;96608.72;;;6.66;100.00
56944;BME280;42848;42.524;12.052;2024-03-08T01:34:50;96602.41;;;6.57;100.00
56944;BME280;42848;42.524;12.052;2024-03-08T01:37:16;96599.00;;;6.51;100.00
56944;BME280;42848;42.524;12.052;2024-03-08T01:39:41;96609.03;;;6.65;100.00
56944;BME280;42848;42.524;12.052;2024-03-08T01:42:07;96599.09;;;6.46;100.00
56944;BME280;42848;42.524;12.052;2024-03-08T01:44:33;96599.00;;;6.51;100.00
56944;BME280;42848;42.524;12.052;2024-03-08T01:47:00;96589.31;;;6.50;100.00
56944;BME280;42848;42.524;12.052;2024-03-08T01:49:27;96590.94;;;6.19;100.00
56944;BME280;42848;42.524;12.052;2024-03-08T01:51:54;96588.47;;;6.36;100.00
56944;BME280;42848;42.524;12.052;2024-03-08T01:54:22;96585.44;;;6.56;100.00
56944;BME280;42848;42.524;12.052;2024-03-08T01:56:49;96588.47;;;6.69;100.00
56944;BME280;42848;42.524;12.052;2024-03-08T01:59:15;96591.69;;;6.38;100.00
56944;BME280;42848;42.524;12.052;2024-03-08T02:01:42;96590.94;;;6.51;100.00
56944;BME280;42848;42.524;12.052;2024-03-08T02:04:08;96592.03;;;6.50;100.00
56944;BME280;42848;42.524;12.052;2024-03-08T02:06:35;96584.63;;;6.42;100.00
56944;BME280;42848;42.524;12.052;2024-03-08T02:09:01;96582.38;;;6.31;100.00
56944;BME280;42848;42.524;12.052;2024-03-08T02:11:32;96584.22;;;6.49;100.00
56944;BME280;42848;42.524;12.052;2024-03-08T02:13:58;96573.78;;;6.28;100.00
56944;BME280;42848;42.524;12.052;2024-03-08T02:16:24;96577.63;;;6.41;100.00
56944;BME280;42848;42.524;12.052;2024-03-08T02:18:50;96574.69;;;6.24;100.00
56944;BME280;42848;42.524;12.052;2024-03-08T02:21:17;96572.31;;;6.36;100.00
56944;BME280;42848;42.524;12.052;2024-03-08T02:23:44;96570.13;;;6.06;100.00
56944;BME280;42848;42.524;12.052;2024-03-08T02:26:10;96571.50;;;6.22;100.00
56944;BME280;42848;42.524;12.052;2024-03-08T02:28:36;96574.19;;;5.84;100.00
56944;BME280;42848;42.524;12.052;2024-03-08T02:31:03;96574.81;;;6.33;100.00
56944;BME280;42848;42.524;12.052;2024-03-08T02:33:34;96584.00;;;6.32;100.00
56944;BME280;42848;42.524;12.052;2024-03-08T02:35:59;96573.50;;;5.79;100.00
56944;BME280;42848;42.524;12.052;2024-03-08T02:38:25;96579.72;;;6.12;100.00
56944;BME280;42848;42.524;12.052;2024-03-08T02:40:52;96577.75;;;6.17;100.00
56944;BME280;42848;42.524;12.052;2024-03-08T02:43:19;96576.28;;;6.25;100.00
56944;BME280;42848;42.524;12.052;2024-03-08T02:45:47;96570.84;;;6.11;100.00
56944;BME280;42848;42.524;12.052;2024-03-08T02:48:14;96583.50;;;6.11;100.00
56944;BME280;42848;42.524;12.052;2024-03-08T02:50:41;96577.94;;;6.21;100.00
56944;BME280;42848;42.524;12.052;2024-03-08T02:53:10;96575.00;;;6.36;100.00
56944;BME280;42848;42.524;12.052;2024-03-08T02:55:38;96573.66;;;6.20;100.00
56944;BME280;42848;42.524;12.052;2024-03-08T02:58:05;96571.63;;;6.12;100.00
56944;BME280;42848;42.524;12.052;2024-03-08T03:00:31;96574.28;;;5.98;100.00
56944;BME280;42848;42.524;12.052;2024-03-08T03:02:57;96573.94;;;6.05;100.00
56944;BME280;42848;42.524;12.052;2024-03-08T03:05:24;96580.03;;;5.91;100.00
56944;BME280;42848;42.524;12.052;2024-03-08T03:07:50;96578.91;;;6.11;100.00
56944;BME280;42848;42.524;12.052;2024-03-08T03:10:19;96579.34;;;6.18;100.00
56944;BME280;42848;42.524;12.052;2024-03-08T03:12:47;96571.69;;;6.25;100.00
56944;BME280;42848;42.524;12.052;2024-03-08T03:15:17;96573.22;;;6.45;100.00
56944;BME280;42848;42.524;12.052;2024-03-08T03:17:50;96574.50;;;6.02;100.00
56944;BME280;42848;42.524;12.052;2024-03-08T03:20:17;96572.78;;;6.24;100.00
56944;BME280;42848;42.524;12.052;2024-03-08T03:22:49;96571.13;;;6.42;100.00
56944;BME280;42848;42.524;12.052;2024-03-08T03:25:21;96583.25;;;5.93;100.00
56944;BME280;42848;42.524;12.052;2024-03-08T03:27:58;96575.53;;;6.06;100.00
56944;BME280;42848;42.524;12.052;2024-03-08T03:30:24;96572.16;;;6.14;100.00
56944;BME280;42848;42.524;12.052;2024-03-08T03:32:52;96570.78;;;6.30;100.00
56944;BME280;42848;42.524;12.052;2024-03-08T03:35:21;96579.41;;;6.32;100.00
56944;BME280;42848;42.524;12.052;2024-03-08T03:37:48;96580.91;;;6.38;100.00
56944;BME280;42848;42.524;12.052;2024-03-08T03:40:28;96583.19;;;6.31;100.00
56944;BME280;42848;42.524;12.052;2024-03-08T03:42:55;96580.78;;;6.30;100.00
56944;BME280;42848;42.524;12.052;2024-03-08T03:45:21;96578.19;;;6.38;100.00
56944;BME280;42848;42.524;12.052;2024-03-08T03:47:46;96569.09;;;6.02;100.00
56944;BME280;42848;42.524;12.052;2024-03-08T03:50:12;96572.28;;;5.85;100.00
56944;BME280;42848;42.524;12.052;2024-03-08T03:52:38;96567.63;;;6.09;100.00
56944;BME280;42848;42.524;12.052;2024-03-08T03:55:04;96569.97;;;6.16;100.00
56944;BME280;42848;42.524;12.052;2024-03-08T03:57:31;96572.59;;;5.83;100.00
56944;BME280;42848;42.524;12.052;2024-03-08T03:59:57;96572.47;;;5.93;100.00
56944;BME280;42848;42.524;12.052;2024-03-08T04:02:24;96576.50;;;5.96;100.00
56944;BME280;42848;42.524;12.052;2024-03-08T04:04:54;96571.81;;;6.02;100.00
56944;BME280;42848;42.524;12.052;2024-03-08T04:07:21;96565.03;;;5.85;100.00
56944;BME280;42848;42.524;12.052;2024-03-08T04:09:47;96565.84;;;5.86;100.00
56944;BME280;42848;42.524;12.052;2024-03-08T04:12:12;96574.19;;;5.84;100.00
56944;BME280;42848;42.524;12.052;2024-03-08T04:14:42;96575.28;;;5.83;100.00
56944;BME280;42848;42.524;12.052;2024-03-08T04:17:08;96574.19;;;5.84;100.00
56944;BME280;42848;42.524;12.052;2024-03-08T04:19:37;96570.00;;;5.78;100.00
56944;BME280;42848;42.524;12.052;2024-03-08T04:22:05;96565.41;;;5.97;100.00
56944;BME280;42848;42.524;12.052;2024-03-08T04:24:33;96574.94;;;5.71;100.00
56944;BME280;42848;42.524;12.052;2024-03-08T04:26:59;96578.50;;;5.66;100.00
56944;BME280;42848;42.524;12.052;2024-03-08T04:29:25;96575.53;;;5.68;100.00
56944;BME280;42848;42.524;12.052;2024-03-08T04:31:51;96578.66;;;5.94;100.00
56944;BME280;42848;42.524;12.052;2024-03-08T04:34:20;96576.09;;;6.03;100.00
56944;BME280;42848;42.524;12.052;2024-03-08T04:36:48;96579.31;;;6.05;100.00
56944;BME280;42848;42.524;12.052;2024-03-08T04:39:13;96578.13;;;6.11;100.00
56944;BME280;42848;42.524;12.052;2024-03-08T04:41:41;96577.44;;;6.19;100.00
56944;BME280;42848;42.524;12.052;2024-03-08T04:44:10;96582.41;;;6.12;100.00
56944;BME280;42848;42.524;12.052;2024-03-08T04:46:36;96574.72;;;6.05;100.00
56944;BME280;42848;42.524;12.052;2024-03-08T04:49:01;96574.66;;;5.91;100.00
56944;BME280;42848;42.524;12.052;2024-03-08T04:51:27;96574.63;;;6.10;100.00
56944;BME280;42848;42.524;12.052;2024-03-08T04:53:53;96572.09;;;6.00;100.00
56944;BME280;42848;42.524;12.052;2024-03-08T04:56:19;96575.06;;;6.17;100.00
56944;BME280;42848;42.524;12.052;2024-03-08T04:58:45;96573.75;;;6.15;100.00
56944;BME280;42848;42.524;12.052;2024-03-08T05:01:14;96571.72;;;6.07;100.00
56944;BME280;42848;42.524;12.052;2024-03-08T05:03:40;96581.72;;;5.87;100.00
56944;BME280;42848;42.524;12.052;2024-03-08T05:06:06;96576.50;;;5.96;100.00
56944;BME280;42848;42.524;12.052;2024-03-08T05:08:32;96580.47;;;5.98;100.00
56944;BME280;42848;42.524;12.052;2024-03-08T05:10:58;96577.56;;;6.14;100.00
56944;BME280;42848;42.524;12.052;2024-03-08T05:13:24;96581.53;;;6.16;100.00
56944;BME280;42848;42.524;12.052;2024-03-08T05:15:49;96577.31;;;6.10;100.00
56944;BME280;42848;42.524;12.052;2024-03-08T05:18:18;96578.00;;;5.46;100.00
56944;BME280;42848;42.524;12.052;2024-03-08T05:20:43;96570.19;;;5.82;100.00
56944;BME280;42848;42.524;12.052;2024-03-08T05:23:09;96574.94;;;6.09;100.00
56944;BME280;42848;42.524;12.052;2024-03-08T05:25:35;96578.47;;;6.23;100.00
56944;BME280;42848;42.524;12.052;2024-03-08T05:28:01;96568.09;;;5.79;100.00
56944;BME280;42848;42.524;12.052;2024-03-08T05:30:27;96571.59;;;5.79;100.00
56944;BME280;42848;42.524;12.052;2024-03-08T05:32:52;96575.22;;;5.88;100.00
56944;BME280;42848;42.524;12.052;2024-03-08T05:35:18;96568.38;;;6.15;100.00
56944;BME280;42848;42.524;12.052;2024-03-08T05:37:44;96568.81;;;5.84;100.00
56944;BME280;42848;42.524;12.052;2024-03-08T05:40:10;96567.97;;;5.51;100.00
56944;BME280;42848;42.524;12.052;2024-03-08T05:42:36;96565.47;;;5.92;100.00
56944;BME280;42848;42.524;12.052;2024-03-08T05:45:03;96577.72;;;6.04;100.00
56944;BME280;42848;42.524;12.052;2024-03-08T05:47:29;96577.88;;;6.26;100.00
56944;BME280;42848;42.524;12.052;2024-03-08T05:49:55;96576.31;;;6.06;100.00
56944;BME280;42848;42.524;12.052;2024-03-08T05:52:20;96578.13;;;6.11;100.00
56944;BME280;42848;42.524;12.052;2024-03-08T05:54:46;96578.56;;;6.18;100.00
56944;BME280;42848;42.524;12.052;2024-03-08T05:57:12;96579.66;;;6.17;100.00
56944;BME280;42848;42.524;12.052;2024-03-08T05:59:39;96585.53;;;6.19;100.00
56944;BME280;42848;42.524;12.052;2024-03-08T06:02:05;96576.53;;;6.10;100.00
56944;BME280;42848;42.524;12.052;2024-03-08T06:04:31;96578.91;;;6.11;100.00
56944;BME280;42848;42.524;12.052;2024-03-08T06:06:57;96585.38;;;6.29;100.00
56944;BME280;42848;42.524;12.052;2024-03-08T06:09:24;96587.72;;;6.17;100.00
56944;BME280;42848;42.524;12.052;2024-03-08T06:11:51;96585.53;;;6.19;100.00
56944;BME280;42848;42.524;12.052;2024-03-08T06:14:18;96580.81;;;6.11;100.00
56944;BME280;42848;42.524;12.052;2024-03-08T06:16:47;96589.94;;;6.15;100.00
56944;BME280;42848;42.524;12.052;2024-03-08T06:19:15;96594.06;;;6.26;100.00
56944;BME280;42848;42.524;12.052;2024-03-08T06:21:41;96589.16;;;6.28;100.00
56944;BME280;42848;42.524;12.052;2024-03-08T06:24:06;96589.66;;;6.30;100.00
56944;BME280;42848;42.524;12.052;2024-03-08T06:26:32;96596.75;;;6.26;100.00
56944;BME280;42848;42.524;12.052;2024-03-08T06:28:58;96599.19;;;6.09;100.00
56944;BME280;42848;42.524;12.052;2024-03-08T06:31:24;96594.56;;;6.28;100.00
56944;BME280;42848;42.524;12.052;2024-03-08T06:33:50;96592.28;;;6.35;100.00
56944;BME280;42848;42.524;12.052;2024-03-08T06:36:16;96591.91;;;6.42;100.00
56944;BME280;42848;42.524;12.052;2024-03-08T06:38:48;96598.41;;;6.54;100.00
56944;BME280;42848;42.524;12.052;2024-03-08T06:41:14;96587.22;;;6.47;100.00
56944;BME280;42848;42.524;12.052;2024-03-08T06:43:47;96591.34;;;6.59;100.00
56944;BME280;42848;42.524;12.052;2024-03-08T06:46:17;96602.72;;;6.55;100.00
56944;BME280;42848;42.524;12.052;2024-03-08T06:48:44;96612.09;;;6.58;100.00
56944;BME280;42848;42.524;12.052;2024-03-08T06:51:11;96602.94;;;6.73;100.00
56944;BME280;42848;42.524;12.052;2024-03-08T06:53:36;96602.06;;;6.77;100.00
56944;BME280;42848;42.524;12.052;2024-03-08T06:56:04;96608.38;;;6.87;100.00
56944;BME280;42848;42.524;12.052;2024-03-08T06:58:30;96604.03;;;6.85;100.00
56944;BME280;42848;42.524;12.052;2024-03-08T07:00:55;96609.53;;;6.94;100.00
56944;BME280;42848;42.524;12.052;2024-03-08T07:03:24;96613.47;;;6.88;100.00
56944;BME280;42848;42.524;12.052;2024-03-08T07:05:49;96614.38;;;6.97;100.00
56944;BME280;42848;42.524;12.052;2024-03-08T07:08:15;96619.03;;;6.92;100.00
56944;BME280;42848;42.524;12.052;2024-03-08T07:10:42;96614.84;;;6.99;100.00
56944;BME280;42848;42.524;12.052;2024-03-08T07:13:08;96614.44;;;6.92;100.00
56944;BME280;42848;42.524;12.052;2024-03-08T07:15:35;96618.84;;;6.88;100.00
56944;BME280;42848;42.524;12.052;2024-03-08T07:18:01;96619.63;;;6.75;100.00
56944;BME280;42848;42.524;12.052;2024-03-08T07:20:27;96628.25;;;6.77;100.00
56944;BME280;42848;42.524;12.052;2024-03-08T07:22:54;96622.25;;;6.94;100.00
56944;BME280;42848;42.524;12.052;2024-03-08T07:25:20;96624.75;;;7.04;100.00
56944;BME280;42848;42.524;12.052;2024-03-08T07:27:49;96637.25;;;7.00;100.00
56944;BME280;42848;42.524;12.052;2024-03-08T07:30:17;96634.44;;;6.91;100.00
56944;BME280;42848;42.524;12.052;2024-03-08T07:33:01;96627.75;;;7.02;100.00
56944;BME280;42848;42.524;12.052;2024-03-08T07:35:29;96633.44;;;6.87;100.00
56944;BME280;42848;42.524;12.052;2024-03-08T07:37:56;96631.84;;;7.00;100.00
56944;BME280;42848;42.524;12.052;2024-03-08T07:40:22;96635.47;;;6.95;100.00
56944;BME280;42848;42.524;12.052;2024-03-08T07:42:49;96630.66;;;7.20;100.00
56944;BME280;42848;42.524;12.052;2024-03-08T07:45:16;96634.28;;;7.15;100.00
56944;BME280;42848;42.524;12.052;2024-03-08T07:47:42;96634.75;;;7.31;100.00
56944;BME280;42848;42.524;12.052;2024-03-08T07:50:09;96632.56;;;7.33;100.00
56944;BME280;42848;42.524;12.052;2024-03-08T07:52:35;96624.25;;;7.43;100.00
56944;BME280;42848;42.524;12.052;2024-03-08T07:55:02;96623.94;;;7.31;100.00
56944;BME280;42848;42.524;12.052;2024-03-08T07:57:31;96627.94;;;7.47;100.00
56944;BME280;42848;42.524;12.052;2024-03-08T07:59:58;96630.97;;;7.32;100.00
56944;BME280;42848;42.524;12.052;2024-03-08T08:02:23;96629.66;;;7.29;100.00
56944;BME280;42848;42.524;12.052;2024-03-08T08:04:49;96628.53;;;7.58;100.00
56944;BME280;42848;42.524;12.052;2024-03-08T08:07:14;96631.03;;;7.54;100.00
56944;BME280;42848;42.524;12.052;2024-03-08T08:09:41;96626.25;;;7.51;100.00
56944;BME280;42848;42.524;12.052;2024-03-08T08:12:10;96627.41;;;7.73;100.00
56944;BME280;42848;42.524;12.052;2024-03-08T08:14:40;96624.44;;;7.60;100.00
56944;BME280;42848;42.524;12.052;2024-03-08T08:17:06;96624.44;;;7.60;100.00
56944;BME280;42848;42.524;12.052;2024-03-08T08:19:34;96624.69;;;7.73;100.00
56944;BME280;42848;42.524;12.052;2024-03-08T08:22:04;96623.03;;;7.63;100.00
56944;BME280;42848;42.524;12.052;2024-03-08T08:24:30;96623.84;;;7.86;100.00
56944;BME280;42848;42.524;12.052;2024-03-08T08:26:55;96631.16;;;7.85;100.00
56944;BME280;42848;42.524;12.052;2024-03-08T08:29:21;96614.44;;;7.97;100.00
56944;BME280;42848;42.524;12.052;2024-03-08T08:31:48;96615.16;;;7.89;100.00
56944;BME280;42848;42.524;12.052;2024-03-08T08:34:16;96612.84;;;7.96;100.00
56944;BME280;42848;42.524;12.052;2024-03-08T08:36:45;96622.16;;;7.90;100.00
56944;BME280;42848;42.524;12.052;2024-03-08T08:39:11;96612.78;;;8.10;100.00
56944;BME280;42848;42.524;12.052;2024-03-08T08:41:42;96613.88;;;8.09;100.00
56944;BME280;42848;42.524;12.052;2024-03-08T08:44:08;96617.88;;;8.11;100.00
56944;BME280;42848;42.524;12.052;2024-03-08T08:46:39;96611.59;;;8.02;100.00
56944;BME280;42848;42.524;12.052;2024-03-08T08:49:05;96608.66;;;8.12;100.00
56944;BME280;42848;42.524;12.052;2024-03-08T08:51:33;96603.88;;;8.32;100.00
56944;BME280;42848;42.524;12.052;2024-03-08T08:53:59;96610.25;;;8.13;100.00
56944;BME280;42848;42.524;12.052;2024-03-08T08:56:25;96600.25;;;8.14;100.00
56944;BME280;42848;42.524;12.052;2024-03-08T08:58:52;96597.78;;;8.26;100.00
56944;BME280;42848;42.524;12.052;2024-03-08T09:01:21;96602.84;;;8.19;100.00
56944;BME280;42848;42.524;12.052;2024-03-08T09:03:46;96603.78;;;8.37;100.00
56944;BME280;42848;42.524;12.052;2024-03-08T09:06:13;96602.09;;;8.49;100.00
56944;BME280;42848;42.524;12.052;2024-03-08T09:08:39;96608.31;;;8.50;100.00
56944;BME280;42848;42.524;12.052;2024-03-08T09:11:05;96598.31;;;8.50;100.00
56944;BME280;42848;42.524;12.052;2024-03-08T09:13:32;96589.69;;;8.48;100.00
56944;BME280;42848;42.524;12.052;2024-03-08T09:16:02;96597.63;;;8.45;100.00
56944;BME280;42848;42.524;12.052;2024-03-08T09:18:31;96593.13;;;8.40;100.00
56944;BME280;42848;42.524;12.052;2024-03-08T09:20:58;96596.69;;;8.49;100.00
56944;BME280;42848;42.524;12.052;2024-03-08T09:23:25;96603.41;;;8.52;100.00
56944;BME280;42848;42.524;12.052;2024-03-08T09:25:58;96590.84;;;8.56;100.00
56944;BME280;42848;42.524;12.052;2024-03-08T09:28:24;96598.84;;;8.61;100.00
56944;BME280;42848;42.524;12.052;2024-03-08T09:30:50;96595.38;;;8.69;100.00
56944;BME280;42848;42.524;12.052;2024-03-08T09:33:16;96597.06;;;8.88;100.00
56944;BME280;42848;42.524;12.052;2024-03-08T09:35:48;96603.72;;;8.81;100.00
56944;BME280;42848;42.524;12.052;2024-03-08T09:38:14;96602.03;;;8.94;100.00
56944;BME280;42848;42.524;12.052;2024-03-08T09:40:43;96609.97;;;8.91;100.00
56944;BME280;42848;42.524;12.052;2024-03-08T09:43:12;96602.16;;;8.89;100.00
56944;BME280;42848;42.524;12.052;2024-03-08T09:45:40;96598.84;;;8.92;100.00
56944;BME280;42848;42.524;12.052;2024-03-08T09:48:11;96597.44;;;9.03;100.00
56944;BME280;42848;42.524;12.052;2024-03-08T09:50:42;96597.94;;;9.05;100.00
56944;BME280;42848;42.524;12.052;2024-03-08T09:53:11;96596.06;;;9.15;100.00
56944;BME280;42848;42.524;12.052;2024-03-08T09:55:38;96595.84;;;9.42;100.00
56944;BME280;42848;42.524;12.052;2024-03-08T09:58:13;96604.75;;;9.60;100.00
56944;BME280;42848;42.524;12.052;2024-03-08T10:00:58;96591.31;;;9.29;100.00
56944;BME280;42848;42.524;12.052;2024-03-08T10:03:27;96599.84;;;9.62;100.00
56944;BME280;42848;42.524;12.052;2024-03-08T10:05:53;96601.78;;;9.70;100.00
56944;BME280;42848;42.524;12.052;2024-03-08T10:08:27;96604.28;;;9.58;100.00
56944;BME280;42848;42.524;12.052;2024-03-08T10:10:55;96609.44;;;9.85;100.00
56944;BME280;42848;42.524;12.052;2024-03-08T10:13:24;96609.94;;;9.79;100.00
56944;BME280;42848;42.524;12.052;2024-03-08T10:15:52;96605.13;;;9.76;100.00
56944;BME280;42848;42.524;12.052;2024-03-08T10:18:18;96605.75;;;9.73;100.00
56944;BME280;42848;42.524;12.052;2024-03-08T10:20:44;96611.03;;;9.86;100.00
56944;BME280;42848;42.524;12.052;2024-03-08T10:23:10;96608.50;;;9.81;100.00
56944;BME280;42848;42.524;12.052;2024-03-08T10:25:36;96605.31;;;9.79;100.00
56944;BME280;42848;42.524;12.052;2024-03-08T10:28:05;96605.78;;;9.98;100.00
56944;BME280;42848;42.524;12.052;2024-03-08T10:30:31;96608.97;;;10.18;100.00
56944;BME280;42848;42.524;12.052;2024-03-08T10:32:58;96610.75;;;10.31;100.00
56944;BME280;42848;42.524;12.052;2024-03-08T10:35:24;96608.03;;;10.40;100.00
56944;BME280;42848;42.524;12.052;2024-03-08T10:37:52;96609.63;;;10.32;100.00
56944;BME280;42848;42.524;12.052;2024-03-08T10:40:26;96602.44;;;10.36;100.00
56944;BME280;42848;42.524;12.052;2024-03-08T10:42:56;96614.56;;;10.30;100.00
56944;BME280;42848;42.524;12.052;2024-03-08T10:45:31;96605.16;;;10.28;100.00
56944;BME280;42848;42.524;12.052;2024-03-08T10:50:50;96606.34;;;10.82;100.00
56944;BME280;42848;42.524;12.052;2024-03-08T10:53:18;96593.16;;;10.54;100.00
56944;BME280;42848;42.524;12.052;2024-03-08T10:55:47;96596.03;;;10.58;100.00
56944;BME280;42848;42.524;12.052;2024-03-08T10:58:16;96597.47;;;10.56;100.00
56944;BME280;42848;42.524;12.052;2024-03-08T11:00:42;96599.06;;;10.48;100.00
56944;BME280;42848;42.524;12.052;2024-03-08T11:09:02;96583.44;;;11.00;100.00
56944;BME280;42848;42.524;12.052;2024-03-08T11:11:31;96581.34;;;10.50;100.00
56944;BME280;42848;42.524;12.052;2024-03-08T11:13:58;96579.16;;;10.91;100.00
56944;BME280;42848;42.524;12.052;2024-03-08T11:19:23;96582.41;;;10.75;100.00
56944;BME280;42848;42.524;12.052;2024-03-08T11:22:03;96575.38;;;10.74;100.00
56944;BME280;42848;42.524;12.052;2024-03-08T11:24:37;96573.00;;;10.73;100.00
56944;BME280;42848;42.524;12.052;2024-03-08T11:27:06;96564.91;;;11.02;100.00
56944;BME280;42848;42.524;12.052;2024-03-08T11:29:36;96577.94;;;11.18;100.00
56944;BME280;42848;42.524;12.052;2024-03-08T11:32:15;96571.56;;;11.14;100.00
56944;BME280;42848;42.524;12.052;2024-03-08T11:34:45;96562.94;;;11.11;100.00
56944;BME280;42848;42.524;12.052;2024-03-08T11:37:18;96555.81;;;10.98;100.00
56944;BME280;42848;42.524;12.052;2024-03-08T11:39:50;96557.41;;;10.99;100.00
56944;BME280;42848;42.524;12.052;2024-03-08T11:42:18;96550.66;;;11.05;100.00
56944;BME280;42848;42.524;12.052;2024-03-08T11:44:45;96550.69;;;11.35;100.00
56944;BME280;42848;42.524;12.052;2024-03-08T11:47:14;96537.28;;;11.51;100.00
56944;BME280;42848;42.524;12.052;2024-03-08T11:49:40;96536.19;;;11.73;100.00
56944;BME280;42848;42.524;12.052;2024-03-08T11:52:15;96533.25;;;11.57;100.00
56944;BME280;42848;42.524;12.052;2024-03-08T11:54:42;96536.09;;;11.39;100.00
56944;BME280;42848;42.524;12.052;2024-03-08T11:57:18;96535.50;;;11.34;100.00
56944;BME280;42848;42.524;12.052;2024-03-08T11:59:54;96521.03;;;11.42;100.00
56944;BME280;42848;42.524;12.052;2024-03-08T12:02:24;96508.13;;;11.39;100.00
56944;BME280;42848;42.524;12.052;2024-03-08T12:04:58;96494.22;;;11.61;100.00
56944;BME280;42848;42.524;12.052;2024-03-08T12:07:25;96493.81;;;11.72;100.00
56944;BME280;42848;42.524;12.052;2024-03-08T12:10:21;96495.81;;;11.62;100.00
56944;BME280;42848;42.524;12.052;2024-03-08T12:12:56;96484.16;;;11.83;100.00
56944;BME280;42848;42.524;12.052;2024-03-08T12:15:25;96487.59;;;11.92;100.00
56944;BME280;42848;42.524;12.052;2024-03-08T12:17:53;96477.88;;;12.03;100.00
56944;BME280;42848;42.524;12.052;2024-03-08T12:20:21;96479.72;;;12.11;100.00
56944;BME280;42848;42.524;12.052;2024-03-08T12:22:47;96485.19;;;12.23;97.69
56944;BME280;42848;42.524;12.052;2024-03-08T12:25:14;96467.31;;;12.35;100.00
56944;BME280;42848;42.524;12.052;2024-03-08T12:27:44;96473.41;;;12.32;100.00
56944;BME280;42848;42.524;12.052;2024-03-08T12:30:23;96472.53;;;12.28;98.41
56944;BME280;42848;42.524;12.052;2024-03-08T12:32:59;96469.34;;;12.26;99.47
56944;BME280;42848;42.524;12.052;2024-03-08T12:35:29;96462.72;;;12.14;97.97
56944;BME280;42848;42.524;12.052;2024-03-08T12:37:58;96462.50;;;12.07;98.19
56944;BME280;42848;42.524;12.052;2024-03-08T12:40:29;96448.03;;;12.28;98.40
56944;BME280;42848;42.524;12.052;2024-03-08T12:42:58;96451.28;;;12.21;100.00
56944;BME280;42848;42.524;12.052;2024-03-08T12:45:24;96455.94;;;12.20;100.00
56944;BME280;42848;42.524;12.052;2024-03-08T12:47:51;96451.03;;;12.14;97.97
56944;BME280;42848;42.524;12.052;2024-03-08T12:50:19;96439.91;;;12.07;98.02
56944;BME280;42848;42.524;12.052;2024-03-08T12:52:45;96444.50;;;12.27;98.23
56944;BME280;42848;42.524;12.052;2024-03-08T12:55:11;96443.22;;;12.24;98.58
56944;BME280;42848;42.524;12.052;2024-03-08T12:57:38;96440.66;;;12.40;100.00
56944;BME280;42848;42.524;12.052;2024-03-08T13:00:05;96435.56;;;12.39;98.61
56944;BME280;42848;42.524;12.052;2024-03-08T13:02:32;96431.00;;;12.43;97.84